Latest Weather Observations for Point Fawcett

IDD60801

Issued at 9:01 pm CST Tuesday 26 May 2015 (issued every 30 minutes, with the page automatically refreshed every 10 minutes)

About weather observations | Map of weather stations | Latest weather observations for NT | Other Formats
Station Details ID: 200731 Name: POINT FAWCETT Lat: -11.76 Lon: 130.03 Height: 6.5 m
Data from the previous 72 hours. | See also: Recent months at Point Fawcett
Date/Time
CST
Temp
°C
App
Temp
°C
Dew
Point
Rel
Hum
%
Delta-T
°C
Wind Press
QNH
hPa
Press
MSL
hPa
Rain
since 9 am
mm
Dir
 
Spd
km/h
Gust
km/h
Spd
kts
Gust
kts
26/09:00pm 27.9 31.1 24.3 81 2.5 N 15 20 8 11 1014.3 1014.2 -
26/08:30pm 27.9 31.0 24.1 80 2.6 N 15 22 8 12 1014.0 - -
26/08:00pm 28.2 31.1 24.4 80 2.6 N 17 24 9 13 1013.6 - -
26/07:30pm 28.3 30.5 23.9 77 3.0 N 19 22 10 12 1013.4 - -
26/07:00pm 28.6 31.8 24.4 78 2.9 N 15 20 8 11 1013.1 - -
26/06:30pm 29.2 33.1 24.3 75 3.4 N 11 17 6 9 1012.9 - -
26/06:00pm 30.8 34.8 24.4 68 4.5 N 11 15 6 8 1012.4 1012.3 -
26/05:30pm 32.2 36.6 24.5 64 5.4 N 9 13 5 7 1012.1 - -
26/05:00pm 32.5 35.4 21.7 53 7.3 ESE 9 15 5 8 1011.8 - -
26/04:30pm 32.5 34.4 21.4 52 7.5 ESE 13 19 7 10 1011.8 - -
26/04:00pm 32.4 34.8 21.6 53 7.3 SE 11 20 6 11 1011.8 - -
26/03:30pm 32.4 34.3 21.3 52 7.5 ESE 13 20 7 11 1012.1 - -
26/03:00pm 32.8 35.1 22.0 53 7.4 ESE 13 22 7 12 1012.4 1012.3 -
26/02:30pm 32.7 35.6 22.5 55 7.0 SE 11 22 6 12 1012.5 - -
26/02:00pm 33.0 36.2 23.0 55 6.9 SE 11 24 6 13 1012.8 - -
26/01:30pm 32.5 35.1 22.6 56 6.8 SE 13 20 7 11 1013.3 - -
26/01:00pm 32.5 34.9 22.3 55 7.0 ESE 13 28 7 15 1013.7 - -
26/12:30pm 32.8 35.0 22.6 55 7.0 ESE 15 24 8 13 1014.1 - -
26/12:00pm 32.6 35.6 22.7 56 6.8 ESE 11 17 6 9 1014.6 1014.5 -
26/11:30am 31.0 35.6 24.1 66 4.8 NW 7 13 4 7 1015.1 - -
26/11:00am 30.4 34.3 24.3 70 4.3 NW 11 13 6 7 1015.5 - -
26/10:30am 31.0 35.3 23.6 64 5.1 ESE 7 13 4 7 1015.7 - -
26/10:00am 30.1 35.1 24.5 72 3.9 ESE 6 9 3 5 1016.1 - -
26/09:30am 28.3 32.8 23.9 77 3.0 ENE 7 11 4 6 1016.2 - -
26/09:00am 27.9 32.4 23.9 79 2.8 E 7 11 4 6 1016.0 1015.9 -
26/08:30am 26.2 31.2 24.8 92 1.0 E 7 9 4 5 1015.8 - -
26/08:00am 24.8 29.2 23.8 94 0.7 E 7 7 4 4 1015.7 - -
26/07:30am 22.9 26.3 21.7 93 0.8 E 6 7 3 4 1015.3 - -
26/07:00am 22.1 24.9 20.9 93 0.8 ESE 7 9 4 5 1015.2 - -
26/06:30am 22.5 25.5 21.3 93 0.8 ESE 7 9 4 5 1014.8 - -
26/06:00am 22.9 26.1 21.7 93 0.8 ESE 7 9 4 5 1014.6 1014.5 -
26/05:30am 22.7 26.0 21.5 93 0.8 ESE 6 7 3 4 1014.3 - -
26/05:00am 22.2 25.1 21.0 93 0.8 ESE 7 7 4 4 1014.1 - -
26/04:30am 22.1 24.9 20.9 93 0.8 SE 7 7 4 4 1013.9 - -
26/04:00am 22.3 25.2 21.1 93 0.8 ESE 7 9 4 5 1014.1 - -
26/03:30am 22.2 25.1 21.0 93 0.8 SE 7 7 4 4 1014.1 - -
26/03:00am 21.9 24.6 20.7 93 0.8 SSE 7 9 4 5 1014.3 1014.2 -
26/02:30am 21.3 23.6 19.9 92 0.9 SSE 7 9 4 5 1014.6 - -
26/02:00am 21.2 23.4 19.7 91 1.0 SE 7 9 4 5 1014.6 - -
26/01:30am 21.5 23.9 20.0 91 1.0 SSE 7 11 4 6 1015.0 - -
26/01:00am 21.4 23.8 19.7 90 1.1 ESE 6 6 3 3 1015.1 - -
26/12:30am 21.7 24.1 19.6 88 1.3 E 6 6 3 3 1015.3 - -
26/12:00am 22.1 24.6 19.8 87 1.5 E 6 7 3 4 1015.4 1015.3 -
 
Date/Time
CST
Temp
°C
App
Temp
°C
Dew
Point
Rel
Hum
%
Delta-T
°C
Wind Press
QNH
hPa
Press
MSL
hPa
Rain
since 9 am
mm
Dir
 
Spd
km/h
Gust
km/h
Spd
kts
Gust
kts
25/11:30pm 22.5 25.0 19.9 85 1.7 ENE 6 7 3 4 1015.5 - -
25/11:00pm 23.1 25.7 20.1 83 1.9 E 6 7 3 4 1015.6 - -
25/10:30pm 24.2 27.0 20.9 82 2.2 ENE 7 11 4 6 1015.8 - -
25/10:00pm 24.2 26.8 20.5 80 2.4 ENE 7 11 4 6 1015.8 - -
25/09:30pm 25.0 27.8 21.5 81 2.3 ENE 9 15 5 8 1015.7 - -
25/09:00pm 24.5 27.3 20.8 80 2.4 ESE 7 11 4 6 1015.4 1015.3 -
25/08:30pm 25.4 28.4 21.3 78 2.7 ESE 7 9 4 5 1015.0 - -
25/08:00pm 26.0 28.9 21.7 77 2.9 ESE 9 15 5 8 1014.7 - -
25/07:30pm 26.4 28.7 21.4 74 3.3 E 11 15 6 8 1014.3 - -
25/07:00pm 26.8 29.0 21.1 71 3.8 E 11 17 6 9 1013.9 - -
25/06:30pm 27.4 29.0 20.7 67 4.4 ESE 13 19 7 10 1013.6 - -
25/06:00pm 28.5 30.4 20.5 62 5.3 ESE 11 20 6 11 1013.3 1013.2 -
25/05:30pm 29.5 30.8 20.1 57 6.2 ESE 13 20 7 11 1013.0 - -
25/05:00pm 30.4 31.4 19.4 51 7.2 ESE 13 22 7 12 1012.8 - -
25/04:30pm 31.4 32.4 19.4 49 7.9 ESE 13 22 7 12 1012.8 - -
25/04:00pm 31.5 31.6 17.4 43 9.0 ESE 13 22 7 12 1012.8 - -
25/03:30pm 31.4 31.4 18.0 44 8.6 ESE 15 24 8 13 1012.9 - -
25/03:00pm 31.1 31.0 17.8 45 8.5 ESE 15 28 8 15 1013.1 1013.0 -
25/02:30pm 31.2 32.2 19.5 49 7.7 ESE 13 22 7 12 1013.3 - -
25/02:00pm 31.4 31.4 18.0 44 8.6 ESE 15 22 8 12 1013.8 - -
25/01:30pm 31.6 31.1 17.9 44 8.8 ESE 17 28 9 15 1014.2 - -
25/01:00pm 31.0 31.3 18.0 45 8.3 ESE 13 24 7 13 1014.6 - -
25/12:30pm 31.3 31.6 17.9 44 8.6 ESE 13 26 7 14 1015.0 - -
25/12:00pm 31.8 32.5 18.0 43 8.9 E 11 19 6 10 1015.2 1015.1 -
25/11:30am 31.2 31.3 17.5 44 8.7 E 13 19 7 10 1015.5 - -
25/11:00am 30.7 31.8 18.8 49 7.7 ESE 11 17 6 9 1015.7 - -
25/10:30am 30.2 33.1 21.0 58 6.1 E 7 15 4 8 1016.1 - -
25/10:00am 29.4 31.8 20.8 60 5.7 E 9 13 5 7 1016.3 - -
25/09:30am 28.3 31.2 21.1 65 4.8 SE 7 11 4 6 1016.3 - -
25/09:00am 26.6 29.4 20.9 71 3.8 E 7 9 4 5 1016.2 1016.1 -
25/08:30am 22.3 25.0 20.6 90 1.1 SE 7 9 4 5 1016.0 - -
25/08:00am 18.6 19.8 17.4 93 0.7 ESE 7 9 4 5 1015.5 - -
25/07:30am 16.8 17.0 15.7 93 0.6 E 9 9 5 5 1015.2 - -
25/07:00am 16.3 16.2 15.0 92 0.8 ESE 9 9 5 5 1015.1 - -
25/06:30am 16.2 16.7 14.9 92 0.7 ESE 6 7 3 4 1014.8 - -
25/06:00am 16.2 16.4 14.7 91 0.9 ESE 7 7 4 4 1014.5 1014.4 -
25/05:30am 16.3 16.5 14.8 91 0.9 ESE 7 9 4 5 1014.2 - -
25/05:00am 16.4 16.2 14.8 90 0.9 ESE 9 11 5 6 1014.3 - -
25/04:30am 16.4 16.2 14.6 89 1.0 ESE 9 11 5 6 1014.2 - -
25/04:00am 16.6 16.4 14.6 88 1.1 ESE 9 11 5 6 1014.2 - -
25/03:30am 16.7 16.4 14.5 87 1.3 ESE 9 11 5 6 1014.4 - -
25/03:00am 17.0 16.8 14.8 87 1.3 ESE 9 13 5 7 1014.6 1014.5 -
25/02:30am 16.8 16.5 14.3 85 1.4 ESE 9 11 5 6 1015.1 - -
25/02:00am 17.2 16.9 14.5 84 1.6 ESE 9 11 5 6 1015.1 - -
25/01:30am 17.0 16.3 14.3 84 1.5 E 11 15 6 8 1015.2 - -
25/01:00am 17.1 16.7 14.0 82 1.8 ESE 9 11 5 6 1015.4 - -
25/12:30am 17.5 17.0 13.8 79 2.1 SE 9 11 5 6 1015.4 - -
25/12:00am 18.0 17.5 13.7 76 2.4 SE 9 13 5 7 1015.4 1015.3 -
 
Date/Time
CST
Temp
°C
App
Temp
°C
Dew
Point
Rel
Hum
%
Delta-T
°C
Wind Press
QNH
hPa
Press
MSL
hPa
Rain
since 9 am
mm
Dir
 
Spd
km/h
Gust
km/h
Spd
kts
Gust
kts
24/11:30pm 18.9 18.4 13.7 72 3.0 ESE 9 11 5 6 1015.4 - -
24/11:00pm 21.3 20.4 13.7 62 4.4 ENE 11 15 6 8 1015.1 - -
24/10:30pm 19.9 19.2 14.3 70 3.2 E 11 13 6 7 1015.1 - -
24/10:00pm 22.0 21.5 13.9 60 4.7 E 9 13 5 7 1015.1 - -
24/09:30pm 22.4 21.5 13.7 58 5.0 E 11 15 6 8 1015.0 - -
24/09:00pm 22.1 21.5 14.7 63 4.4 E 11 15 6 8 1014.9 1014.8 -
24/08:30pm 22.1 22.0 16.1 69 3.6 ESE 11 15 6 8 1014.5 - -
24/08:00pm 22.6 22.6 16.2 67 3.9 ESE 11 13 6 7 1014.1 - -
24/07:30pm 22.4 22.8 16.2 68 3.8 ESE 9 13 5 7 1013.7 - -
24/07:00pm 23.2 23.5 16.0 64 4.4 ESE 9 13 5 7 1013.3 - -
24/06:30pm 25.4 25.8 16.3 57 5.6 ESE 9 13 5 7 1013.1 - -
24/06:00pm 27.5 28.3 17.4 54 6.3 ESE 9 13 5 7 1012.8 1012.7 -
24/05:30pm 28.6 28.6 17.2 50 7.2 ESE 13 20 7 11 1012.5 - -
24/05:00pm 29.2 29.2 17.1 48 7.6 SE 13 17 7 9 1012.2 - -
24/04:30pm 30.0 30.3 17.1 46 8.1 SE 11 19 6 10 1012.1 - -
24/04:00pm 30.5 30.7 17.6 46 8.2 ESE 13 20 7 11 1011.9 - -
24/03:30pm 31.0 31.9 18.4 47 8.1 ESE 11 19 6 10 1012.0 - -
24/03:00pm 31.0 31.4 17.3 43 8.7 ESE 11 22 6 12 1012.2 1012.1 -
24/02:30pm 30.9 31.5 17.6 45 8.5 ESE 11 17 6 9 1012.2 - -
24/02:00pm 31.3 31.7 17.2 42 8.9 ESE 11 20 6 11 1012.6 - -
24/01:30pm 30.8 30.3 16.8 43 8.8 ESE 15 22 8 12 1013.1 - -
24/01:00pm 30.5 29.6 15.8 41 9.1 E 15 24 8 13 1013.4 - -
24/12:30pm 30.6 30.0 16.6 43 8.8 E 15 24 8 13 1013.7 - -
24/12:00pm 30.7 30.7 16.3 42 9.0 ESE 11 20 6 11 1013.9 1013.8 -
24/11:30am 30.0 29.6 17.1 46 8.1 E 15 28 8 15 1014.4 - -
24/11:00am 29.7 30.3 18.5 51 7.2 ESE 13 28 7 15 1014.6 - -
24/10:30am 29.2 29.2 18.0 51 7.1 ESE 15 24 8 13 1015.0 - -
24/10:00am 28.5 28.5 18.0 53 6.7 ESE 15 24 8 13 1015.1 - -
24/09:30am 27.4 28.9 18.9 59 5.5 ESE 9 15 5 8 1015.2 - -
24/09:00am 26.1 28.9 21.5 76 3.1 E 9 13 5 7 1015.2 1015.1 -
24/08:30am 23.6 27.2 22.4 93 0.8 E 7 11 4 6 1014.9 - -
24/08:00am 20.2 22.3 19.4 95 0.5 E 7 9 4 5 1014.7 - -
24/07:30am 18.7 19.7 17.7 94 0.6 E 9 11 5 6 1014.3 - -
24/07:00am 18.4 19.5 17.2 93 0.7 E 7 11 4 6 1014.0 - -
24/06:30am 18.5 19.3 17.2 92 0.8 E 9 11 5 6 1013.7 - -
24/06:00am 19.1 20.0 17.6 91 0.9 E 9 11 5 6 1013.6 1013.5 -
24/05:30am 19.4 20.4 17.7 90 1.0 E 9 11 5 6 1013.5 - -
24/05:00am 19.9 21.0 17.9 88 1.2 E 9 13 5 7 1013.5 - -
24/04:30am 20.2 21.2 17.8 86 1.5 E 9 13 5 7 1013.4 - -
24/04:00am 21.1 22.6 18.9 87 1.4 E 9 13 5 7 1013.3 - -
24/03:30am 20.9 22.2 19.4 91 1.0 E 11 15 6 8 1013.6 - -
24/03:00am 20.4 21.7 19.2 93 0.8 E 11 13 6 7 1013.7 1013.6 -
24/02:30am 20.6 22.1 19.8 95 0.5 E 11 13 6 7 1013.8 - -
24/02:00am 19.6 20.6 18.6 94 0.6 E 11 11 6 6 1014.0 - -
24/01:30am 19.3 20.5 18.3 94 0.6 E 9 11 5 6 1014.2 - -
24/01:00am 19.2 20.8 18.2 94 0.6 SSE 7 9 4 5 1014.0 - -
24/12:30am 19.4 21.0 18.2 93 0.7 SSE 7 7 4 4 1014.3 - -
24/12:00am 19.5 21.1 18.3 93 0.7 SSE 7 9 4 5 1014.5 1014.4 -
 
Date/Time
CST
Temp
°C
App
Temp
°C
Dew
Point
Rel
Hum
%
Delta-T
°C
Wind Press
QNH
hPa
Press
MSL
hPa
Rain
since 9 am
mm
Dir
 
Spd
km/h
Gust
km/h
Spd
kts
Gust
kts
23/11:30pm 19.6 21.2 18.3 92 0.8 SSE 7 9 4 5 1014.5 - -
23/11:00pm 19.7 21.4 18.4 92 0.8 SSE 7 9 4 5 1014.4 - -
23/10:30pm 19.8 21.4 18.3 91 0.9 SSE 7 9 4 5 1014.3 - -
23/10:00pm 20.0 21.6 18.3 90 1.1 SSE 7 9 4 5 1014.3 - -
23/09:30pm 20.3 22.0 18.4 89 1.2 SSE 7 9 4 5 1014.1 - -

Other Formats:

Comma delimited format used in spreadsheet applications
http://www.bom.gov.au/fwo/IDD60801/IDD60801.94122.axf

JavaScript Object Notation format (JSON) in row-major order
http://www.bom.gov.au/fwo/IDD60801/IDD60801.94122.json